Time;durP1;ratioP1;P1;durP2;ratioP2;P2;SDS_P1;SDS_P2;PMS_P1;PMS_P2;Temp;Humidity;BMP_temperature;BMP_pressure;BME280_temperature;BME280_humidity;BME280_pressure;Samples;Min_cycle;Max_cycle;Signal;HPM_P1;HPM_P2
2024/03/26 00:00:31;;;;;;;10.38;6.15;;;;;;;1.89;100.00;99653.06;5086528;28;20395;-80
2024/03/26 00:02:57;;;;;;;14.10;6.80;;;;;;;1.89;100.00;99650.41;5071650;28;20456;-79
2024/03/26 00:05:22;;;;;;;12.15;5.18;;;;;;;1.84;100.00;99642.09;5066067;28;20039;-79
2024/03/26 00:07:47;;;;;;;21.80;6.47;;;;;;;1.83;100.00;99637.81;5076815;28;20032;-80
2024/03/26 00:10:13;;;;;;;19.67;5.55;;;;;;;1.80;100.00;99638.91;5089300;28;20475;-79
2024/03/26 00:12:38;;;;;;;18.67;5.63;;;;;;;1.81;100.00;99640.56;5088578;28;20016;-79
2024/03/26 00:15:04;;;;;;;16.50;6.18;;;;;;;1.78;100.00;99635.59;5059970;28;20628;-80
2024/03/26 00:17:30;;;;;;;18.98;6.95;;;;;;;1.74;100.00;99623.66;5066590;28;20028;-79
2024/03/26 00:19:55;;;;;;;19.35;5.60;;;;;;;1.77;100.00;99627.81;5061606;28;20063;-77
2024/03/26 00:22:20;;;;;;;14.90;6.10;;;;;;;1.78;100.00;99629.47;5065339;28;20039;-77
2024/03/26 00:24:46;;;;;;;11.45;6.32;;;;;;;1.76;100.00;99634.88;5068829;28;20043;-77
2024/03/26 00:27:11;;;;;;;14.85;5.88;;;;;;;1.73;100.00;99643.00;5067913;28;20032;-77
2024/03/26 00:29:36;;;;;;;15.57;5.63;;;;;;;1.72;100.00;99646.63;5082433;28;20427;-77
2024/03/26 00:32:02;;;;;;;17.10;6.28;;;;;;;1.71;100.00;99637.09;5064922;28;20081;-77
2024/03/26 00:34:27;;;;;;;17.10;5.60;;;;;;;1.68;100.00;99627.63;5057847;28;20041;-77
2024/03/26 00:36:53;;;;;;;14.30;4.68;;;;;;;1.75;100.00;99627.09;5071164;28;20032;-78
2024/03/26 00:39:18;;;;;;;15.23;6.63;;;;;;;1.74;100.00;99633.34;5089460;28;20640;-79
2024/03/26 00:41:43;;;;;;;12.85;4.97;;;;;;;1.72;100.00;99620.31;5086908;28;20105;-79
2024/03/26 00:44:09;;;;;;;8.27;4.00;;;;;;;1.70;100.00;99611.72;5089054;28;20028;-79
2024/03/26 00:46:34;;;;;;;12.20;4.55;;;;;;;1.78;100.00;99624.19;5067942;28;20124;-82
2024/03/26 00:48:59;;;;;;;13.10;4.30;;;;;;;1.72;100.00;99617.69;5087682;28;20729;-78
2024/03/26 00:51:25;;;;;;;9.70;4.53;;;;;;;1.75;100.00;99630.56;5064177;28;20495;-81
2024/03/26 00:53:50;;;;;;;9.75;4.50;;;;;;;1.75;100.00;99624.47;5067017;28;20029;-77
2024/03/26 00:56:16;;;;;;;13.13;5.22;;;;;;;1.71;100.00;99613.41;5078872;28;20032;-78
2024/03/26 00:58:41;;;;;;;13.40;4.53;;;;;;;1.68;100.00;99596.06;5088649;28;20040;-81
2024/03/26 01:01:10;;;;;;;10.50;5.07;;;;;;;1.74;100.00;99605.22;5082273;28;20028;-80
2024/03/26 01:03:36;;;;;;;12.35;4.53;;;;;;;1.69;100.00;99589.00;5058083;28;20028;-80
2024/03/26 01:06:02;;;;;;;15.18;4.45;;;;;;;1.64;100.00;99612.28;5072059;28;20035;-81
2024/03/26 01:08:28;;;;;;;8.90;3.85;;;;;;;1.77;100.00;99643.59;5063073;28;20028;-79
2024/03/26 01:10:53;;;;;;;13.20;4.18;;;;;;;1.79;100.00;99644.31;5089506;28;20032;-79
2024/03/26 01:13:19;;;;;;;6.85;3.78;;;;;;;1.79;100.00;99623.25;5091180;28;20032;-81
2024/03/26 01:15:45;;;;;;;15.18;5.03;;;;;;;1.71;100.00;99602.00;5056981;28;20036;-80
2024/03/26 01:18:10;;;;;;;11.50;5.63;;;;;;;1.68;100.00;99601.31;5054069;28;20019;-78
2024/03/26 01:20:36;;;;;;;10.95;4.57;;;;;;;1.68;100.00;99603.94;5086935;28;20035;-78
2024/03/26 01:23:02;;;;;;;;;;;;;;;1.78;100.00;99621.56;5088113;28;20024;-80
2024/03/26 01:25:27;;;;;;;13.20;5.07;;;;;;;1.85;100.00;99631.44;5088691;28;20061;-81
2024/03/26 01:27:53;;;;;;;15.27;4.80;;;;;;;1.85;100.00;99617.44;5071070;28;20056;-79
2024/03/26 01:30:19;;;;;;;14.57;4.05;;;;;;;1.91;100.00;99630.06;5091617;28;20028;-78
2024/03/26 01:32:44;;;;;;;;;;;;;;;1.96;100.00;99619.13;5074440;28;20031;-78
2024/03/26 01:35:10;;;;;;;11.68;4.63;;;;;;;1.96;100.00;99612.06;5091233;28;19911;-78
2024/03/26 01:37:35;;;;;;;8.15;4.05;;;;;;;1.98;100.00;99614.56;5082296;28;20551;-79
2024/03/26 01:40:01;;;;;;;9.75;4.20;;;;;;;1.94;100.00;99608.72;5083625;28;20422;-78
2024/03/26 01:42:26;;;;;;;9.27;4.75;;;;;;;1.98;100.00;99609.31;5085931;28;20024;-78
2024/03/26 01:44:51;;;;;;;11.97;4.33;;;;;;;1.93;100.00;99590.47;5083125;28;20525;-80
2024/03/26 01:47:17;;;;;;;15.13;5.53;;;;;;;2.02;100.00;99601.00;5081543;28;20328;-80
2024/03/26 01:49:44;;;;;;;13.02;5.55;;;;;;;2.03;100.00;99612.34;5078919;28;20051;-81
2024/03/26 01:52:10;;;;;;;16.48;5.05;;;;;;;2.07;100.00;99600.59;5070601;28;20103;-81
2024/03/26 01:54:35;;;;;;;9.40;4.25;;;;;;;2.16;100.00;99612.94;5065603;28;20050;-80
2024/03/26 01:57:00;;;;;;;18.88;7.50;;;;;;;2.10;100.00;99609.03;5079194;28;20410;-78
2024/03/26 01:59:26;;;;;;;14.30;5.78;;;;;;;2.13;100.00;99601.84;5091508;28;20532;-80
2024/03/26 02:01:51;;;;;;;16.30;4.47;;;;;;;2.21;100.00;99613.38;5087914;28;20274;-80
2024/03/26 02:04:17;;;;;;;12.40;5.18;;;;;;;2.29;100.00;99612.69;5070890;28;20032;-78
2024/03/26 02:06:43;;;;;;;11.68;5.03;;;;;;;2.09;100.00;99586.31;5086632;28;20044;-79
2024/03/26 02:09:08;;;;;;;15.32;5.50;;;;;;;2.19;100.00;99604.78;5067702;28;20067;-80
2024/03/26 02:11:34;;;;;;;14.57;5.55;;;;;;;2.25;100.00;99598.13;5050072;28;20032;-80
2024/03/26 02:13:59;;;;;;;13.55;5.30;;;;;;;2.24;100.00;99593.81;5069878;28;20040;-79
2024/03/26 02:16:24;;;;;;;13.88;6.43;;;;;;;2.10;100.00;99581.88;5067582;28;20051;-80
2024/03/26 02:18:50;;;;;;;14.30;5.55;;;;;;;2.10;100.00;99606.41;5087205;28;20036;-80
2024/03/26 02:21:15;;;;;;;12.52;4.80;;;;;;;2.22;100.00;99608.94;5058689;28;20119;-77
2024/03/26 02:23:42;;;;;;;16.20;5.40;;;;;;;2.31;100.00;99610.75;5060409;28;20037;-78
2024/03/26 02:26:15;;;;;;;14.18;5.38;;;;;;;2.29;100.00;99591.59;5062457;28;20032;-80
2024/03/26 02:28:40;;;;;;;11.52;5.10;;;;;;;2.23;100.00;99573.75;5083132;28;20024;-78
2024/03/26 02:31:06;;;;;;;17.90;5.95;;;;;;;2.19;100.00;99557.38;5069941;28;20453;-79
2024/03/26 02:33:31;;;;;;;14.97;5.67;;;;;;;2.11;100.00;99558.06;5070230;28;20088;-80
2024/03/26 02:35:56;;;;;;;15.27;6.10;;;;;;;2.16;100.00;99575.25;5088062;28;20960;-80
2024/03/26 02:38:22;;;;;;;15.27;5.30;;;;;;;2.11;100.00;99557.25;5058663;28;20305;-80
2024/03/26 02:40:47;;;;;;;13.80;4.95;;;;;;;2.08;100.00;99552.22;5064705;28;20036;-79
2024/03/26 02:43:12;;;;;;;14.73;5.00;;;;;;;2.13;100.00;99557.09;5067381;28;20051;-80
2024/03/26 02:45:38;;;;;;;10.57;5.28;;;;;;;2.08;100.00;99558.34;5050554;28;20434;-80
2024/03/26 02:48:06;;;;;;;12.60;5.03;;;;;;;2.06;100.00;99543.63;5081284;28;20032;-80
2024/03/26 02:50:32;;;;;;;16.52;5.30;;;;;;;1.98;100.00;99531.16;5076464;28;20139;-79
2024/03/26 02:52:57;;;;;;;10.63;4.43;;;;;;;1.99;100.00;99537.25;5055709;28;20124;-79
2024/03/26 02:55:22;;;;;;;12.45;5.78;;;;;;;2.01;100.00;99536.13;5070740;28;20561;-79
2024/03/26 02:57:48;;;;;;;12.82;4.82;;;;;;;2.09;100.00;99548.63;5091231;28;20043;-78
2024/03/26 03:00:14;;;;;;;14.73;5.25;;;;;;;2.13;100.00;99543.91;5069878;28;20032;-78
2024/03/26 03:02:39;;;;;;;15.38;5.88;;;;;;;2.10;100.00;99537.94;5087488;28;20016;-80
2024/03/26 03:05:05;;;;;;;15.95;5.13;;;;;;;2.11;100.00;99551.97;5090761;28;20134;-78
2024/03/26 03:07:30;;;;;;;12.88;5.15;;;;;;;2.13;100.00;99536.00;5084850;28;20020;-80
2024/03/26 03:09:55;;;;;;;13.00;4.80;;;;;;;2.06;100.00;99515.53;5070385;28;20127;-80
2024/03/26 03:12:21;;;;;;;17.83;4.97;;;;;;;2.03;100.00;99505.25;5082016;28;20286;-79
2024/03/26 03:14:46;;;;;;;9.57;4.85;;;;;;;2.06;100.00;99501.50;5092673;28;20100;-80
2024/03/26 03:17:11;;;;;;;11.48;6.00;;;;;;;1.94;100.00;99482.38;5070548;28;20043;-80
2024/03/26 03:19:37;;;;;;;13.32;5.25;;;;;;;1.86;100.00;99469.09;5059548;28;20036;-78
2024/03/26 03:22:02;;;;;;;18.60;7.30;;;;;;;1.79;100.00;99467.97;5073195;28;20043;-79
2024/03/26 03:24:27;;;;;;;17.40;6.20;;;;;;;1.80;100.00;99496.81;5090275;28;20282;-79
2024/03/26 03:26:53;;;;;;;14.63;5.80;;;;;;;1.74;100.00;99501.78;5080688;28;20024;-79
2024/03/26 03:29:18;;;;;;;15.95;5.40;;;;;;;1.68;100.00;99527.63;5073631;28;20376;-78
2024/03/26 03:31:44;;;;;;;12.32;5.93;;;;;;;1.71;100.00;99549.38;5090334;28;20047;-80
2024/03/26 03:34:09;;;;;;;16.85;5.07;;;;;;;1.75;100.00;99558.69;5083148;28;20073;-78
2024/03/26 03:36:34;;;;;;;12.77;6.17;;;;;;;1.76;100.00;99552.47;5085546;28;20016;-78
2024/03/26 03:39:00;;;;;;;15.95;5.55;;;;;;;1.80;100.00;99556.47;5072170;28;20789;-79
2024/03/26 03:41:25;;;;;;;9.02;4.68;;;;;;;1.71;100.00;99550.25;5064373;28;20077;-78
2024/03/26 03:43:50;;;;;;;11.57;6.30;;;;;;;1.79;100.00;99562.72;5072867;28;20032;-80
2024/03/26 03:46:16;;;;;;;16.23;6.22;;;;;;;1.73;100.00;99544.81;5090515;28;20071;-78
2024/03/26 03:48:41;;;;;;;12.38;5.18;;;;;;;1.74;100.00;99544.69;5090219;28;20047;-79
2024/03/26 03:51:07;;;;;;;12.43;5.50;;;;;;;1.63;100.00;99524.59;5056191;28;20032;-78
2024/03/26 03:53:32;;;;;;;13.30;5.35;;;;;;;1.45;100.00;99518.31;5070292;28;20027;-79
2024/03/26 03:55:58;;;;;;;15.93;5.25;;;;;;;1.45;100.00;99534.09;5063342;28;20514;-79
2024/03/26 03:58:23;;;;;;;11.30;5.75;;;;;;;1.46;100.00;99533.97;5067772;28;20035;-78
2024/03/26 04:00:48;;;;;;;16.13;5.63;;;;;;;1.44;100.00;99528.00;5056655;28;20093;-79
2024/03/26 04:03:14;;;;;;;15.52;5.32;;;;;;;1.35;100.00;99506.94;5069751;28;20776;-79
2024/03/26 04:05:40;;;;;;;14.68;5.10;;;;;;;1.45;100.00;99518.31;5087816;28;20032;-78
2024/03/26 04:08:06;;;;;;;10.25;5.28;;;;;;;1.45;100.00;99524.41;5057037;28;20470;-79
2024/03/26 04:10:39;;;;;;;12.40;5.88;;;;;;;1.41;100.00;99520.38;5066435;28;20356;-79
2024/03/26 04:13:04;;;;;;;10.93;4.47;;;;;;;1.41;100.00;99523.00;5085143;28;20782;-78
2024/03/26 04:15:29;;;;;;;7.78;4.15;;;;;;;1.36;100.00;99505.97;5078065;28;20115;-78
2024/03/26 04:17:55;;;;;;;11.45;5.20;;;;;;;1.34;100.00;99500.03;5086018;28;20028;-80
2024/03/26 04:20:20;;;;;;;11.05;4.80;;;;;;;1.38;100.00;99509.28;5087531;28;20054;-79
2024/03/26 04:22:46;;;;;;;9.70;4.50;;;;;;;1.39;100.00;99503.91;5086599;28;20026;-79
2024/03/26 04:25:13;;;;;;;16.38;5.63;;;;;;;1.43;100.00;99504.47;5078998;28;20078;-79
2024/03/26 04:27:39;;;;;;;16.77;6.45;;;;;;;1.44;100.00;99514.03;5086237;28;20038;-78
2024/03/26 04:30:06;;;;;;;17.65;6.10;;;;;;;1.40;100.00;99510.81;5086008;28;20102;-77
2024/03/26 04:32:32;;;;;;;15.18;4.50;;;;;;;1.41;100.00;99506.41;5077092;28;20036;-79
2024/03/26 04:34:58;;;;;;;9.43;4.78;;;;;;;1.41;100.00;99507.22;5088845;28;20050;-78
2024/03/26 04:37:23;;;;;;;;;;;;;;;1.43;100.00;99501.84;5090721;28;20051;-78
2024/03/26 04:39:49;;;;;;;15.48;5.63;;;;;;;1.25;100.00;99470.09;5056683;28;19963;-80
2024/03/26 04:42:14;;;;;;;16.30;5.93;;;;;;;1.29;100.00;99482.00;5069910;28;20032;-78
2024/03/26 04:44:39;;;;;;;12.88;6.25;;;;;;;1.42;100.00;99516.78;5089030;28;20115;-78
2024/03/26 04:47:05;;;;;;;27.75;6.03;;;;;;;1.55;100.00;99529.72;5089867;28;20032;-79
2024/03/26 04:49:30;;;;;;;11.02;4.45;;;;;;;1.61;100.00;99523.88;5091106;28;20356;-79
2024/03/26 04:51:55;;;;;;;16.77;6.00;;;;;;;1.75;100.00;99535.00;5071303;28;20032;-78
2024/03/26 04:54:21;;;;;;;11.82;4.97;;;;;;;1.85;100.00;99525.31;5065132;28;20344;-78
2024/03/26 04:56:46;;;;;;;11.40;5.32;;;;;;;1.88;100.00;99496.09;5091037;28;20103;-78
2024/03/26 04:59:11;;;;;;;13.68;6.10;;;;;;;2.03;100.00;99489.44;5078078;28;20514;-80
2024/03/26 05:01:37;;;;;;;9.88;5.07;;;;;;;1.85;100.00;99456.88;5082076;28;20028;-79
2024/03/26 05:04:02;;;;;;;17.38;6.85;;;;;;;2.01;100.00;99461.59;5090066;28;20646;-79
2024/03/26 05:06:28;;;;;;;13.73;5.97;;;;;;;2.02;100.00;99442.22;5091776;28;20062;-80
2024/03/26 05:08:53;;;;;;;15.75;4.95;;;;;;;2.02;100.00;99421.97;5072866;28;20278;-80
2024/03/26 05:11:18;;;;;;;12.15;5.53;;;;;;;1.98;100.00;99404.81;5090911;28;20322;-79
2024/03/26 05:13:44;;;;;;;13.45;4.78;;;;;;;2.08;100.00;99389.84;5076941;28;20047;-78
2024/03/26 05:16:09;;;;;;;22.27;5.68;;;;;;;2.22;100.00;99387.72;5059975;28;20040;-77
2024/03/26 05:18:35;;;;;;;16.05;5.43;;;;;;;2.32;100.00;99370.94;5058287;28;20032;-75
2024/03/26 05:21:00;;;;;;;12.55;4.53;;;;;;;2.28;100.00;99321.31;5087598;28;20088;-77
2024/03/26 05:23:25;;;;;;;11.75;4.30;;;;;;;2.27;100.00;99301.19;5070376;28;20047;-80
2024/03/26 05:25:51;;;;;;;12.60;5.10;;;;;;;2.17;100.00;99272.28;5089480;28;20039;-79
2024/03/26 05:28:16;;;;;;;12.13;4.37;;;;;;;2.16;100.00;99275.06;5085358;28;20062;-79
2024/03/26 05:30:42;;;;;;;10.43;4.78;;;;;;;2.25;100.00;99274.22;5052433;28;20033;-79
2024/03/26 05:33:07;;;;;;;11.73;5.05;;;;;;;2.17;100.00;99260.94;5064789;28;20027;-79
2024/03/26 05:35:32;;;;;;;14.23;5.53;;;;;;;2.33;100.00;99261.13;5082342;28;20032;-78
2024/03/26 05:38:00;;;;;;;12.80;4.82;;;;;;;2.31;100.00;99236.75;5085392;28;20062;-79
2024/03/26 05:40:25;;;;;;;15.27;4.80;;;;;;;2.28;100.00;99216.78;5090220;28;20394;-78
2024/03/26 05:42:51;;;;;;;13.77;4.28;;;;;;;2.45;100.00;99224.88;5090754;28;20048;-78
2024/03/26 05:45:16;;;;;;;9.30;4.88;;;;;;;2.52;100.00;99210.97;5089930;28;20104;-80
2024/03/26 05:47:41;;;;;;;15.70;4.22;;;;;;;2.47;100.00;99186.88;5083750;28;20032;-78
2024/03/26 05:50:07;;;;;;;11.82;4.90;;;;;;;2.53;100.00;99170.50;5089746;28;20606;-79
2024/03/26 05:52:33;;;;;;;11.65;4.32;;;;;;;2.44;100.00;99125.78;5090414;28;20053;-79
2024/03/26 05:54:59;;;;;;;9.10;4.75;;;;;;;2.53;100.00;99128.34;5087213;28;20032;-79
2024/03/26 05:57:24;;;;;;;15.88;4.45;;;;;;;2.80;100.00;99142.41;5089169;28;20020;-78
2024/03/26 05:59:50;;;;;;;11.57;4.20;;;;;;;2.64;100.00;99081.66;5069029;28;20098;-77
2024/03/26 06:02:15;;;;;;;11.65;4.18;;;;;;;2.55;100.00;99054.41;5088706;28;20122;-78
2024/03/26 06:04:41;;;;;;;12.02;3.92;;;;;;;2.71;100.00;99074.78;5076965;28;20039;-78
2024/03/26 06:07:07;;;;;;;11.43;4.85;;;;;;;2.53;100.00;99025.59;5071846;28;20027;-78
2024/03/26 06:09:32;;;;;;;9.05;4.22;;;;;;;2.70;100.00;99023.88;5089552;28;20043;-78
2024/03/26 06:11:58;;;;;;;9.68;4.07;;;;;;;2.94;100.00;99049.56;5090127;28;20035;-79
2024/03/26 06:14:23;;;;;;;9.18;4.05;;;;;;;3.11;100.00;99041.78;5068842;28;20030;-78
2024/03/26 06:16:49;;;;;;;10.30;4.22;;;;;;;3.11;100.00;98994.31;5078360;28;20036;-76
2024/03/26 06:19:14;;;;;;;12.33;4.50;;;;;;;3.16;100.00;98984.97;5069932;28;20032;-77
2024/03/26 06:21:40;;;;;;;10.47;4.13;;;;;;;3.30;100.00;98986.16;5081921;28;20293;-78
2024/03/26 06:24:05;;;;;;;8.83;3.83;;;;;;;3.46;100.00;98963.44;5087849;28;20282;-79
2024/03/26 06:26:30;;;;;;;10.80;3.95;;;;;;;3.33;100.00;98885.59;5083123;28;20282;-78
2024/03/26 06:28:56;;;;;;;9.77;4.20;;;;;;;3.16;100.00;98826.72;5084139;28;20043;-79
2024/03/26 06:31:21;;;;;;;13.93;4.10;;;;;;;3.28;100.00;98866.81;5052323;28;20290;-78
2024/03/26 06:33:46;;;;;;;10.23;4.47;;;;;;;3.83;100.00;98920.81;5086235;28;20352;-78
2024/03/26 06:36:12;;;;;;;6.80;3.10;;;;;;;4.38;100.00;98879.69;5084799;28;20504;-78
2024/03/26 06:38:38;;;;;;;13.80;3.97;;;;;;;4.25;100.00;98687.34;5081102;28;20029;-78
2024/03/26 06:41:04;;;;;;;9.32;3.78;;;;;;;4.68;100.00;98684.31;5088230;28;20058;-77
2024/03/26 06:43:29;;;;;;;6.90;3.53;;;;;;;4.43;100.00;98549.72;5089852;28;20712;-78
2024/03/26 06:45:55;;;;;;;9.67;3.37;;;;;;;4.95;100.00;98601.00;5100377;22;20048;-78
2024/03/26 06:48:20;;;;;;;8.03;3.80;;;;;;;4.54;100.00;98498.25;5066533;28;20369;-78
2024/03/26 06:50:45;;;;;;;12.70;4.05;;;;;;;5.18;100.00;98638.00;5079702;28;20039;-78
2024/03/26 06:53:11;;;;;;;9.50;3.73;;;;;;;4.93;100.00;98486.66;5087897;28;20471;-78
2024/03/26 06:55:37;;;;;;;13.33;3.70;;;;;;;4.90;100.00;98455.31;5080528;28;20317;-78
2024/03/26 06:58:02;;;;;;;15.88;4.45;;;;;;;4.94;100.00;98449.47;5056722;28;20111;-77
2024/03/26 07:00:28;;;;;;;8.63;4.28;;;;;;;4.95;100.00;98506.63;5053376;28;20085;-77
2024/03/26 07:02:57;;;;;;;9.80;3.60;;;;;;;5.29;100.00;98563.47;5061354;28;20901;-78
2024/03/26 07:05:23;;;;;;;14.98;4.15;;;;;;;5.79;100.00;98521.38;5039243;28;20033;-77
2024/03/26 07:07:48;;;;;;;;;;;;;;;5.88;100.00;98433.69;5048043;28;20044;-78
2024/03/26 07:10:13;;;;;;;12.35;3.88;;;;;;;5.42;100.00;98261.97;5055404;28;19912;-77
2024/03/26 07:12:39;;;;;;;9.70;3.42;;;;;;;5.44;100.00;98222.91;5047497;28;20123;-79
2024/03/26 07:15:06;;;;;;;8.23;3.50;;;;;;;5.22;100.00;98174.50;5047462;28;20057;-78
2024/03/26 07:17:32;;;;;;;7.78;4.03;;;;;;;5.47;100.00;98270.16;5045010;28;20294;-77
2024/03/26 07:19:57;;;;;;;11.50;4.03;;;;;;;5.80;100.00;98330.50;5059010;28;20032;-77
2024/03/26 07:22:24;;;;;;;7.53;3.67;;;;;;;6.27;100.00;98296.44;5046977;28;20037;-78
2024/03/26 07:24:49;;;;;;;15.45;3.60;;;;;;;6.82;100.00;98257.56;5046779;28;20343;-79
2024/03/26 07:27:16;;;;;;;8.73;3.72;;;;;;;6.43;100.00;98054.16;5040882;28;20060;-77
2024/03/26 07:29:42;;;;;;;14.35;4.25;;;;;;;6.36;100.00;98093.88;5047193;28;20085;-77
2024/03/26 07:32:08;;;;;;;;;;;;;;;6.36;100.00;98112.44;5050794;28;20033;-77
2024/03/26 07:34:34;;;;;;;9.73;3.80;;;;;;;6.46;100.00;98187.09;5052727;28;19913;-78
2024/03/26 07:37:00;;;;;;;10.25;3.38;;;;;;;6.72;100.00;98075.00;5052195;28;20122;-78
2024/03/26 07:39:25;;;;;;;8.87;3.60;;;;;;;6.60;100.00;97981.16;5054975;28;20071;-78
2024/03/26 07:41:50;;;;;;;8.00;3.05;;;;;;;7.07;100.00;98066.84;5052067;28;20698;-77
2024/03/26 07:44:16;;;;;;;9.10;3.57;;;;;;;7.36;100.00;98062.09;5046630;28;20036;-78
2024/03/26 07:46:43;;;;;;;6.07;3.13;;;;;;;6.65;100.00;97742.78;5042617;28;20295;-77
2024/03/26 07:49:09;;;;;;;12.00;4.75;;;;;;;7.30;100.00;98004.53;5064056;28;20070;-78
2024/03/26 07:51:35;;;;;;;;;;;;;;;7.41;100.00;97998.56;5058643;28;20029;-78
2024/03/26 07:54:00;;;;;;;8.18;3.95;;;;;;;7.95;100.00;98122.19;5044754;28;20385;-77
2024/03/26 07:56:26;;;;;;;10.00;3.70;;;;;;;7.99;100.00;97923.31;5051274;28;20031;-78
2024/03/26 07:58:51;;;;;;;10.20;4.07;;;;;;;7.95;100.00;97869.78;5047130;28;20445;-78
2024/03/26 08:01:17;;;;;;;6.20;3.63;;;;;;;7.87;100.00;97848.03;5049418;28;20514;-79
2024/03/26 08:03:43;;;;;;;9.82;3.30;;;;;;;7.82;100.00;97713.22;5053400;28;20287;-78
2024/03/26 08:06:08;;;;;;;16.52;3.70;;;;;;;7.64;100.00;97700.69;5063725;28;20068;-77
2024/03/26 08:08:33;;;;;;;11.07;2.97;;;;;;;7.70;100.00;97699.00;5055911;28;20028;-77
2024/03/26 08:10:59;;;;;;;9.73;3.60;;;;;;;7.97;100.00;97758.00;5060195;28;20503;-79
2024/03/26 08:13:24;;;;;;;5.47;2.70;;;;;;;8.09;100.00;97699.66;5046245;28;20376;-78
2024/03/26 08:15:50;;;;;;;6.63;3.40;;;;;;;7.95;100.00;97648.50;5046160;28;20101;-78
2024/03/26 08:18:16;;;;;;;7.90;2.92;;;;;;;8.01;100.00;97690.94;5045721;28;20037;-78
2024/03/26 08:20:43;;;;;;;13.13;3.63;;;;;;;8.30;100.00;97731.09;5039518;28;20037;-78
2024/03/26 08:23:09;;;;;;;5.88;2.75;;;;;;;8.63;100.00;97809.72;5048410;28;20490;-77
2024/03/26 08:25:34;;;;;;;9.27;2.90;;;;;;;9.07;100.00;97779.28;5048024;28;20033;-78
2024/03/26 08:28:00;;;;;;;5.87;3.17;;;;;;;8.54;100.00;97668.25;5045719;28;20275;-78
2024/03/26 08:30:25;;;;;;;6.70;2.83;;;;;;;8.48;100.00;97631.16;5046152;28;20486;-78
2024/03/26 08:32:50;;;;;;;9.13;3.37;;;;;;;8.90;100.00;97676.38;5045670;28;20090;-77
2024/03/26 08:35:16;;;;;;;6.93;3.10;;;;;;;9.18;99.76;97713.03;5065064;28;20032;-78
2024/03/26 08:37:42;;;;;;;7.80;3.42;;;;;;;8.92;98.21;97541.28;5046503;28;20095;-77
2024/03/26 08:40:08;;;;;;;7.37;3.27;;;;;;;9.18;96.10;97498.25;5049410;28;20033;-77
2024/03/26 08:42:35;;;;;;;10.73;3.53;;;;;;;9.61;96.25;97626.72;5054450;28;20029;-78
2024/03/26 08:45:01;;;;;;;9.68;3.47;;;;;;;10.14;94.89;97617.72;5031651;28;20029;-78
2024/03/26 08:47:27;;;;;;;7.20;3.33;;;;;;;9.63;93.95;97480.81;5048704;28;20033;-78
2024/03/26 08:49:52;;;;;;;5.97;3.37;;;;;;;10.11;94.72;97709.66;5045245;28;20028;-78
2024/03/26 08:52:18;;;;;;;6.67;3.23;;;;;;;10.01;93.53;97625.97;5066520;28;20115;-77
2024/03/26 08:54:43;;;;;;;7.60;3.77;;;;;;;9.67;92.46;97469.44;5046176;28;20146;-77
2024/03/26 08:57:09;;;;;;;7.47;3.70;;;;;;;9.54;92.80;97507.00;5070407;28;20039;-78
2024/03/26 08:59:37;;;;;;;7.82;4.57;;;;;;;10.57;93.63;97888.53;5046350;28;20051;-79
2024/03/26 09:02:02;;;;;;;10.65;4.25;;;;;;;10.10;89.91;97396.13;5056184;28;21372;-78
2024/03/26 09:04:28;;;;;;;31.70;4.30;;;;;;;10.44;91.01;97665.56;5059750;28;20040;-77
2024/03/26 09:06:53;;;;;;;9.53;4.53;;;;;;;11.26;90.84;97827.28;5056860;28;20658;-79
2024/03/26 09:09:19;;;;;;;6.37;3.83;;;;;;;11.99;87.12;97605.59;5036114;28;20139;-78
2024/03/26 09:11:44;;;;;;;6.60;3.72;;;;;;;11.12;84.84;97284.75;5057701;28;20045;-78
2024/03/26 09:14:09;;;;;;;4.90;3.13;;;;;;;10.89;83.62;97191.63;5047365;28;20080;-78
2024/03/26 09:16:35;;;;;;;9.10;4.20;;;;;;;9.85;83.02;96932.13;5045753;28;20029;-78
2024/03/26 09:19:00;;;;;;;10.37;3.80;;;;;;;10.08;85.98;97360.91;5055346;28;20103;-79
2024/03/26 09:21:26;;;;;;;9.93;4.10;;;;;;;10.61;85.95;97467.41;5045189;28;20479;-78
2024/03/26 09:23:51;;;;;;;10.57;4.30;;;;;;;10.73;84.68;97394.22;5063658;28;20047;-78
2024/03/26 09:26:16;;;;;;;7.93;4.60;;;;;;;9.89;82.69;97029.97;5041642;28;20032;-79
2024/03/26 09:28:42;;;;;;;5.63;3.77;;;;;;;9.83;84.17;97204.13;5047270;28;20048;-78
2024/03/26 09:31:08;;;;;;;12.00;4.27;;;;;;;10.68;84.22;97446.69;5050346;28;20124;-78
2024/03/26 09:33:33;;;;;;;9.68;5.32;;;;;;;10.39;83.79;97369.44;5050915;28;20658;-77
2024/03/26 09:35:59;;;;;;;11.20;4.87;;;;;;;10.42;84.02;97363.63;5060557;28;20024;-78
2024/03/26 09:38:24;;;;;;;15.17;5.90;;;;;;;11.39;85.34;97794.91;5040785;28;20060;-80
2024/03/26 09:40:54;;;;;;;16.67;7.43;;;;;;;11.33;83.47;97482.56;5049922;28;20024;-78
2024/03/26 09:43:21;;;;;;;16.67;6.47;;;;;;;11.24;80.42;97147.59;5066332;28;20028;-79
2024/03/26 09:45:48;;;;;;;12.05;5.50;;;;;;;11.28;81.10;97282.22;5035997;28;20029;-78
2024/03/26 09:48:14;;;;;;;7.30;4.32;;;;;;;11.46;81.47;97366.56;5055193;28;20112;-78
2024/03/26 09:50:41;;;;;;;;;;;;;;;11.32;80.88;97294.81;5045091;28;20565;-78
2024/03/26 09:53:09;;;;;;;9.45;3.95;;;;;;;11.54;80.01;97291.28;5035914;28;20341;-79
2024/03/26 09:55:36;;;;;;;9.65;4.43;;;;;;;11.35;78.96;97122.59;5040152;28;20476;-79
2024/03/26 09:58:01;;;;;;;6.88;4.05;;;;;;;11.55;81.21;97488.75;5050602;28;20036;-79
2024/03/26 10:00:30;;;;;;;5.88;3.47;;;;;;;11.64;79.67;97296.75;5056507;28;20029;-79
2024/03/26 10:02:59;;;;;;;11.00;3.88;;;;;;;11.37;81.41;97447.09;5045832;28;20048;-79
2024/03/26 10:05:25;;;;;;;8.13;4.03;;;;;;;10.89;80.81;97221.78;5050675;28;20139;-78
2024/03/26 10:07:51;;;;;;;7.32;4.15;;;;;;;11.01;81.79;97408.47;5057663;28;20063;-79
2024/03/26 10:10:17;;;;;;;9.00;5.10;;;;;;;11.30;82.91;97622.75;5054284;28;20032;-78
2024/03/26 10:12:42;;;;;;;7.80;4.38;;;;;;;11.23;82.15;97451.19;5051899;28;20044;-78
2024/03/26 10:15:08;;;;;;;6.82;4.10;;;;;;;11.83;81.39;97562.59;5052230;28;20033;-79
2024/03/26 10:17:34;;;;;;;7.53;3.85;;;;;;;11.49;82.15;97555.72;5056565;28;20863;-79
2024/03/26 10:20:00;;;;;;;6.63;4.00;;;;;;;12.65;81.76;97791.00;5046963;28;20123;-78
2024/03/26 10:22:26;;;;;;;9.82;3.92;;;;;;;12.30;79.72;97424.06;5060761;28;20140;-79
2024/03/26 10:24:51;;;;;;;10.20;4.27;;;;;;;13.04;79.32;97638.31;5052918;28;20086;-79
2024/03/26 10:27:16;;;;;;;9.57;4.50;;;;;;;12.41;77.60;97249.22;5045062;28;20037;-78
2024/03/26 10:29:42;;;;;;;11.70;4.80;;;;;;;12.74;77.24;97263.28;5032281;28;20060;-78
2024/03/26 10:32:08;;;;;;;8.90;4.60;;;;;;;11.72;77.90;97146.63;5035613;28;20526;-78
2024/03/26 10:34:35;;;;;;;8.85;4.60;;;;;;;12.51;79.20;97546.25;5045578;28;20122;-79
2024/03/26 10:37:01;;;;;;;8.10;4.60;;;;;;;11.63;78.66;97214.97;5058818;28;20051;-78
2024/03/26 10:39:27;;;;;;;;;;;;;;;11.31;77.48;96953.28;5040841;28;20066;-78
2024/03/26 10:41:53;;;;;;;6.68;3.58;;;;;;;11.71;77.70;97166.41;5037907;28;20015;-79
2024/03/26 10:44:18;;;;;;;6.82;3.50;;;;;;;11.43;71.85;96454.47;5054202;28;20747;-78
2024/03/26 10:46:45;;;;;;;7.30;3.03;;;;;;;11.50;70.16;96316.09;5062745;28;20425;-79
2024/03/26 10:49:11;;;;;;;6.57;4.25;;;;;;;12.34;72.56;96856.25;5065792;28;20439;-78
2024/03/26 10:51:38;;;;;;;;;;;;;;;11.99;72.70;96768.84;5052281;28;20116;-78
2024/03/26 10:54:04;;;;;;;7.05;4.03;;;;;;;11.59;68.34;96201.47;5042817;28;20328;-79
2024/03/26 10:56:32;;;;;;;3.90;2.42;;;;;;;12.63;66.99;96377.53;5043408;28;20036;-80
2024/03/26 10:58:58;;;;;;;6.45;2.97;;;;;;;13.32;64.06;96205.94;5052413;28;20040;-80
2024/03/26 11:01:24;;;;;;;6.85;2.97;;;;;;;13.20;62.64;95992.13;5049746;28;20024;-79
2024/03/26 11:03:51;;;;;;;5.18;2.80;;;;;;;13.24;62.38;96094.13;5047048;28;20029;-78
2024/03/26 11:06:23;;;;;;;16.05;3.72;;;;;;;12.00;60.75;95544.47;5061821;28;20036;-79
2024/03/26 11:08:57;;;;;;;5.15;3.13;;;;;;;11.51;60.56;95425.00;5054113;28;20033;-79
2024/03/26 11:11:22;;;;;;;11.35;4.32;;;;;;;11.47;60.87;95627.72;5061396;28;20040;-79
2024/03/26 11:13:55;;;;;;;9.00;3.07;;;;;;;11.55;61.78;95773.13;5034158;28;20455;-79
2024/03/26 11:16:38;;;;;;;4.63;2.92;;;;;;;11.54;61.95;95844.44;5052182;28;20029;-79
2024/03/26 11:19:18;;;;;;;4.90;3.33;;;;;;;11.55;62.22;95903.97;5040758;28;20045;-78
2024/03/26 11:21:44;;;;;;;5.10;2.60;;;;;;;12.49;61.87;96220.66;5048535;28;20103;-78
2024/03/26 11:24:20;;;;;;;4.53;2.42;;;;;;;13.35;60.79;96293.78;5066472;28;20020;-79